sensor_id;sensor_type;location;lat;lon;timestamp;P1;durP1;ratioP1;P2;durP2;ratioP2
15878;SDS011;61999;51.514;14.614;2022-09-09T00:02:01;3.20;;;1.37;;
15878;SDS011;61999;51.514;14.614;2022-09-09T00:04:39;1.27;;;1.10;;
15878;SDS011;61999;51.514;14.614;2022-09-09T00:07:10;1.80;;;1.30;;
15878;SDS011;61999;51.514;14.614;2022-09-09T00:09:52;1.30;;;1.20;;
15878;SDS011;61999;51.514;14.614;2022-09-09T00:12:37;1.20;;;1.10;;
15878;SDS011;61999;51.514;14.614;2022-09-09T00:15:17;1.37;;;1.27;;
15878;SDS011;61999;51.514;14.614;2022-09-09T00:17:51;1.13;;;1.13;;
15878;SDS011;61999;51.514;14.614;2022-09-09T00:20:26;1.20;;;1.10;;
15878;SDS011;61999;51.514;14.614;2022-09-09T00:23:03;1.73;;;1.20;;
15878;SDS011;61999;51.514;14.614;2022-09-09T00:25:42;1.13;;;1.10;;
15878;SDS011;61999;51.514;14.614;2022-09-09T00:28:20;1.83;;;1.40;;
15878;SDS011;61999;51.514;14.614;2022-09-09T00:30:53;2.10;;;1.40;;
15878;SDS011;61999;51.514;14.614;2022-09-09T00:33:27;1.30;;;1.30;;
15878;SDS011;61999;51.514;14.614;2022-09-09T00:35:58;1.07;;;1.07;;
15878;SDS011;61999;51.514;14.614;2022-09-09T00:38:31;1.53;;;0.90;;
15878;SDS011;61999;51.514;14.614;2022-09-09T00:41:07;1.07;;;1.07;;
15878;SDS011;61999;51.514;14.614;2022-09-09T00:43:42;1.67;;;1.30;;
15878;SDS011;61999;51.514;14.614;2022-09-09T00:46:21;1.20;;;1.20;;
15878;SDS011;61999;51.514;14.614;2022-09-09T00:49:19;1.40;;;1.30;;
15878;SDS011;61999;51.514;14.614;2022-09-09T00:52:03;2.03;;;1.50;;
15878;SDS011;61999;51.514;14.614;2022-09-09T00:54:47;1.53;;;1.37;;
15878;SDS011;61999;51.514;14.614;2022-09-09T00:57:31;1.87;;;1.30;;
15878;SDS011;61999;51.514;14.614;2022-09-09T01:00:16;1.30;;;1.20;;
15878;SDS011;61999;51.514;14.614;2022-09-09T01:02:52;1.93;;;1.73;;
15878;SDS011;61999;51.514;14.614;2022-09-09T01:05:49;1.90;;;1.80;;
15878;SDS011;61999;51.514;14.614;2022-09-09T01:08:43;2.87;;;1.60;;
15878;SDS011;61999;51.514;14.614;2022-09-09T01:11:47;1.93;;;1.57;;
15878;SDS011;61999;51.514;14.614;2022-09-09T01:14:30;1.70;;;1.60;;
15878;SDS011;61999;51.514;14.614;2022-09-09T01:17:12;1.50;;;1.40;;
15878;SDS011;61999;51.514;14.614;2022-09-09T01:19:50;1.33;;;1.23;;
15878;SDS011;61999;51.514;14.614;2022-09-09T01:22:33;1.57;;;1.40;;
15878;SDS011;61999;51.514;14.614;2022-09-09T01:25:20;1.47;;;1.37;;
15878;SDS011;61999;51.514;14.614;2022-09-09T01:27:58;1.17;;;1.10;;
15878;SDS011;61999;51.514;14.614;2022-09-09T01:30:38;1.30;;;1.13;;
15878;SDS011;61999;51.514;14.614;2022-09-09T01:33:09;1.37;;;1.17;;
15878;SDS011;61999;51.514;14.614;2022-09-09T01:35:45;1.37;;;1.20;;
15878;SDS011;61999;51.514;14.614;2022-09-09T01:38:21;1.30;;;1.07;;
15878;SDS011;61999;51.514;14.614;2022-09-09T01:40:51;1.57;;;1.37;;
15878;SDS011;61999;51.514;14.614;2022-09-09T01:43:22;1.40;;;1.30;;
15878;SDS011;61999;51.514;14.614;2022-09-09T01:45:54;1.33;;;1.00;;
15878;SDS011;61999;51.514;14.614;2022-09-09T01:48:27;1.23;;;1.20;;
15878;SDS011;61999;51.514;14.614;2022-09-09T01:50:57;1.37;;;1.20;;
15878;SDS011;61999;51.514;14.614;2022-09-09T01:53:25;3.17;;;1.13;;
15878;SDS011;61999;51.514;14.614;2022-09-09T01:56:02;1.70;;;1.60;;
15878;SDS011;61999;51.514;14.614;2022-09-09T01:58:50;2.53;;;1.20;;
15878;SDS011;61999;51.514;14.614;2022-09-09T02:01:39;2.03;;;1.20;;
15878;SDS011;61999;51.514;14.614;2022-09-09T02:04:23;1.43;;;1.10;;
15878;SDS011;61999;51.514;14.614;2022-09-09T02:07:06;1.30;;;1.20;;
15878;SDS011;61999;51.514;14.614;2022-09-09T02:09:57;1.20;;;1.20;;
15878;SDS011;61999;51.514;14.614;2022-09-09T02:12:32;1.33;;;1.10;;
15878;SDS011;61999;51.514;14.614;2022-09-09T02:15:03;1.47;;;1.37;;
15878;SDS011;61999;51.514;14.614;2022-09-09T02:17:38;1.93;;;1.20;;
15878;SDS011;61999;51.514;14.614;2022-09-09T02:20:10;1.40;;;1.30;;
15878;SDS011;61999;51.514;14.614;2022-09-09T02:22:42;1.17;;;1.17;;
15878;SDS011;61999;51.514;14.614;2022-09-09T02:25:16;1.50;;;1.40;;
15878;SDS011;61999;51.514;14.614;2022-09-09T02:27:49;1.63;;;1.00;;
15878;SDS011;61999;51.514;14.614;2022-09-09T02:30:20;1.10;;;1.10;;
15878;SDS011;61999;51.514;14.614;2022-09-09T02:32:50;1.60;;;1.20;;
15878;SDS011;61999;51.514;14.614;2022-09-09T02:35:24;1.30;;;1.20;;
15878;SDS011;61999;51.514;14.614;2022-09-09T02:37:55;1.10;;;1.10;;
15878;SDS011;61999;51.514;14.614;2022-09-09T02:40:29;2.37;;;2.07;;
15878;SDS011;61999;51.514;14.614;2022-09-09T02:42:58;1.87;;;1.07;;
15878;SDS011;61999;51.514;14.614;2022-09-09T02:45:29;1.70;;;1.60;;
15878;SDS011;61999;51.514;14.614;2022-09-09T02:48:08;3.27;;;1.80;;
15878;SDS011;61999;51.514;14.614;2022-09-09T02:50:48;2.23;;;1.30;;
15878;SDS011;61999;51.514;14.614;2022-09-09T02:53:28;2.20;;;1.23;;
15878;SDS011;61999;51.514;14.614;2022-09-09T02:56:08;1.63;;;1.20;;
15878;SDS011;61999;51.514;14.614;2022-09-09T02:58:46;1.40;;;1.27;;
15878;SDS011;61999;51.514;14.614;2022-09-09T03:01:19;1.40;;;1.30;;
15878;SDS011;61999;51.514;14.614;2022-09-09T03:03:48;2.30;;;1.43;;
15878;SDS011;61999;51.514;14.614;2022-09-09T03:06:16;2.63;;;1.40;;
15878;SDS011;61999;51.514;14.614;2022-09-09T03:08:45;1.63;;;1.40;;
15878;SDS011;61999;51.514;14.614;2022-09-09T03:11:15;1.20;;;1.20;;
15878;SDS011;61999;51.514;14.614;2022-09-09T03:13:44;1.37;;;1.27;;
15878;SDS011;61999;51.514;14.614;2022-09-09T03:16:12;1.47;;;1.30;;
15878;SDS011;61999;51.514;14.614;2022-09-09T03:18:42;1.30;;;1.20;;
15878;SDS011;61999;51.514;14.614;2022-09-09T03:21:11;1.13;;;1.10;;
15878;SDS011;61999;51.514;14.614;2022-09-09T03:23:40;2.27;;;1.40;;
15878;SDS011;61999;51.514;14.614;2022-09-09T03:26:08;1.97;;;1.00;;
15878;SDS011;61999;51.514;14.614;2022-09-09T03:28:38;1.97;;;1.43;;
15878;SDS011;61999;51.514;14.614;2022-09-09T03:31:06;1.73;;;1.63;;
15878;SDS011;61999;51.514;14.614;2022-09-09T03:33:36;2.23;;;1.43;;
15878;SDS011;61999;51.514;14.614;2022-09-09T03:36:08;1.93;;;1.53;;
15878;SDS011;61999;51.514;14.614;2022-09-09T03:38:37;2.20;;;1.30;;
15878;SDS011;61999;51.514;14.614;2022-09-09T03:41:05;1.43;;;1.33;;
15878;SDS011;61999;51.514;14.614;2022-09-09T03:43:33;2.63;;;1.23;;
15878;SDS011;61999;51.514;14.614;2022-09-09T03:46:02;4.50;;;1.43;;
15878;SDS011;61999;51.514;14.614;2022-09-09T03:48:31;1.60;;;1.47;;
15878;SDS011;61999;51.514;14.614;2022-09-09T03:50:59;1.47;;;1.37;;
15878;SDS011;61999;51.514;14.614;2022-09-09T03:53:30;2.27;;;1.50;;
15878;SDS011;61999;51.514;14.614;2022-09-09T03:55:59;1.63;;;1.53;;
15878;SDS011;61999;51.514;14.614;2022-09-09T03:58:28;3.70;;;1.40;;
15878;SDS011;61999;51.514;14.614;2022-09-09T04:00:57;1.07;;;1.07;;
15878;SDS011;61999;51.514;14.614;2022-09-09T04:03:28;1.30;;;1.30;;
15878;SDS011;61999;51.514;14.614;2022-09-09T04:05:57;1.53;;;1.20;;
15878;SDS011;61999;51.514;14.614;2022-09-09T04:08:30;1.27;;;1.20;;
15878;SDS011;61999;51.514;14.614;2022-09-09T04:10:59;1.27;;;1.20;;
15878;SDS011;61999;51.514;14.614;2022-09-09T04:13:31;1.30;;;1.20;;
15878;SDS011;61999;51.514;14.614;2022-09-09T04:16:02;1.30;;;1.20;;
15878;SDS011;61999;51.514;14.614;2022-09-09T04:18:31;1.53;;;1.37;;
15878;SDS011;61999;51.514;14.614;2022-09-09T04:21:00;2.53;;;1.37;;
15878;SDS011;61999;51.514;14.614;2022-09-09T04:23:31;1.77;;;1.47;;
15878;SDS011;61999;51.514;14.614;2022-09-09T04:26:00;1.37;;;1.27;;
15878;SDS011;61999;51.514;14.614;2022-09-09T04:28:30;1.53;;;1.10;;
15878;SDS011;61999;51.514;14.614;2022-09-09T04:31:05;1.10;;;1.10;;
15878;SDS011;61999;51.514;14.614;2022-09-09T04:33:35;2.70;;;1.50;;
15878;SDS011;61999;51.514;14.614;2022-09-09T04:36:05;1.37;;;1.20;;
15878;SDS011;61999;51.514;14.614;2022-09-09T04:38:35;4.20;;;2.00;;
15878;SDS011;61999;51.514;14.614;2022-09-09T04:41:04;2.97;;;1.80;;
15878;SDS011;61999;51.514;14.614;2022-09-09T04:43:32;1.80;;;1.70;;
15878;SDS011;61999;51.514;14.614;2022-09-09T04:46:01;2.30;;;1.87;;
15878;SDS011;61999;51.514;14.614;2022-09-09T04:48:29;2.57;;;1.70;;
15878;SDS011;61999;51.514;14.614;2022-09-09T04:50:57;1.60;;;1.50;;
15878;SDS011;61999;51.514;14.614;2022-09-09T04:53:28;1.80;;;1.70;;
15878;SDS011;61999;51.514;14.614;2022-09-09T04:56:02;2.00;;;1.80;;
15878;SDS011;61999;51.514;14.614;2022-09-09T04:58:32;1.63;;;1.50;;
15878;SDS011;61999;51.514;14.614;2022-09-09T05:01:06;1.80;;;1.70;;
15878;SDS011;61999;51.514;14.614;2022-09-09T05:03:36;1.70;;;1.60;;
15878;SDS011;61999;51.514;14.614;2022-09-09T05:06:05;1.60;;;1.47;;
15878;SDS011;61999;51.514;14.614;2022-09-09T05:08:36;1.93;;;1.80;;
15878;SDS011;61999;51.514;14.614;2022-09-09T05:11:13;2.57;;;1.83;;
15878;SDS011;61999;51.514;14.614;2022-09-09T05:13:43;1.93;;;1.77;;
15878;SDS011;61999;51.514;14.614;2022-09-09T05:16:13;1.93;;;1.77;;
15878;SDS011;61999;51.514;14.614;2022-09-09T05:18:41;1.80;;;1.60;;
15878;SDS011;61999;51.514;14.614;2022-09-09T05:21:10;2.27;;;1.60;;
15878;SDS011;61999;51.514;14.614;2022-09-09T05:23:40;2.10;;;1.90;;
15878;SDS011;61999;51.514;14.614;2022-09-09T05:26:09;1.60;;;1.50;;
15878;SDS011;61999;51.514;14.614;2022-09-09T05:28:44;2.43;;;1.50;;
15878;SDS011;61999;51.514;14.614;2022-09-09T05:31:13;2.00;;;1.60;;
15878;SDS011;61999;51.514;14.614;2022-09-09T05:33:44;1.90;;;1.80;;
15878;SDS011;61999;51.514;14.614;2022-09-09T05:36:14;2.10;;;2.00;;
15878;SDS011;61999;51.514;14.614;2022-09-09T05:38:45;3.73;;;1.77;;
15878;SDS011;61999;51.514;14.614;2022-09-09T05:41:15;1.80;;;1.70;;
15878;SDS011;61999;51.514;14.614;2022-09-09T05:43:44;1.70;;;1.60;;
15878;SDS011;61999;51.514;14.614;2022-09-09T05:46:13;1.70;;;1.60;;
15878;SDS011;61999;51.514;14.614;2022-09-09T05:48:44;1.60;;;1.30;;
15878;SDS011;61999;51.514;14.614;2022-09-09T05:51:14;3.73;;;1.60;;
15878;SDS011;61999;51.514;14.614;2022-09-09T05:53:45;1.37;;;1.27;;
15878;SDS011;61999;51.514;14.614;2022-09-09T05:56:15;1.80;;;1.70;;
15878;SDS011;61999;51.514;14.614;2022-09-09T05:58:45;3.10;;;1.53;;
15878;SDS011;61999;51.514;14.614;2022-09-09T06:01:15;1.87;;;1.47;;
15878;SDS011;61999;51.514;14.614;2022-09-09T06:03:46;1.50;;;1.40;;
15878;SDS011;61999;51.514;14.614;2022-09-09T06:06:16;1.50;;;1.40;;
15878;SDS011;61999;51.514;14.614;2022-09-09T06:08:48;2.07;;;1.80;;
15878;SDS011;61999;51.514;14.614;2022-09-09T06:11:20;1.63;;;1.50;;
15878;SDS011;61999;51.514;14.614;2022-09-09T06:13:50;2.70;;;1.80;;
15878;SDS011;61999;51.514;14.614;2022-09-09T06:16:21;1.90;;;1.80;;
15878;SDS011;61999;51.514;14.614;2022-09-09T06:18:51;2.00;;;1.70;;
15878;SDS011;61999;51.514;14.614;2022-09-09T06:21:20;1.60;;;1.50;;
15878;SDS011;61999;51.514;14.614;2022-09-09T06:23:50;2.10;;;1.70;;
15878;SDS011;61999;51.514;14.614;2022-09-09T06:26:22;2.30;;;1.60;;
15878;SDS011;61999;51.514;14.614;2022-09-09T06:28:53;2.50;;;1.40;;
15878;SDS011;61999;51.514;14.614;2022-09-09T06:31:24;2.17;;;1.40;;
15878;SDS011;61999;51.514;14.614;2022-09-09T06:33:56;4.50;;;1.60;;
15878;SDS011;61999;51.514;14.614;2022-09-09T06:36:27;1.90;;;1.60;;
15878;SDS011;61999;51.514;14.614;2022-09-09T06:38:57;1.87;;;1.70;;
15878;SDS011;61999;51.514;14.614;2022-09-09T06:41:27;2.20;;;1.50;;
15878;SDS011;61999;51.514;14.614;2022-09-09T06:43:57;2.17;;;1.40;;
15878;SDS011;61999;51.514;14.614;2022-09-09T06:46:26;1.70;;;1.40;;
15878;SDS011;61999;51.514;14.614;2022-09-09T06:48:58;2.10;;;1.67;;
15878;SDS011;61999;51.514;14.614;2022-09-09T06:51:28;2.47;;;1.53;;
15878;SDS011;61999;51.514;14.614;2022-09-09T06:53:58;1.53;;;1.40;;
15878;SDS011;61999;51.514;14.614;2022-09-09T06:56:30;2.97;;;1.60;;
15878;SDS011;61999;51.514;14.614;2022-09-09T06:59:01;1.57;;;1.47;;
15878;SDS011;61999;51.514;14.614;2022-09-09T07:01:35;2.70;;;1.57;;
15878;SDS011;61999;51.514;14.614;2022-09-09T07:04:06;2.77;;;1.70;;
15878;SDS011;61999;51.514;14.614;2022-09-09T07:06:37;1.70;;;1.47;;
15878;SDS011;61999;51.514;14.614;2022-09-09T07:09:09;2.00;;;1.50;;
15878;SDS011;61999;51.514;14.614;2022-09-09T07:11:41;2.73;;;1.60;;
15878;SDS011;61999;51.514;14.614;2022-09-09T07:14:12;1.97;;;1.27;;
15878;SDS011;61999;51.514;14.614;2022-09-09T07:16:41;1.37;;;1.27;;
15878;SDS011;61999;51.514;14.614;2022-09-09T07:19:10;1.40;;;1.30;;
15878;SDS011;61999;51.514;14.614;2022-09-09T07:21:38;2.30;;;1.50;;
15878;SDS011;61999;51.514;14.614;2022-09-09T07:24:07;1.63;;;1.30;;
15878;SDS011;61999;51.514;14.614;2022-09-09T07:26:37;4.13;;;1.20;;
15878;SDS011;61999;51.514;14.614;2022-09-09T07:29:08;3.10;;;1.70;;
15878;SDS011;61999;51.514;14.614;2022-09-09T07:31:36;4.40;;;1.53;;
15878;SDS011;61999;51.514;14.614;2022-09-09T07:34:07;1.83;;;1.10;;
15878;SDS011;61999;51.514;14.614;2022-09-09T07:36:36;4.00;;;1.30;;
15878;SDS011;61999;51.514;14.614;2022-09-09T07:39:06;5.10;;;1.40;;
15878;SDS011;61999;51.514;14.614;2022-09-09T07:41:37;1.97;;;1.20;;
15878;SDS011;61999;51.514;14.614;2022-09-09T07:44:09;2.47;;;1.13;;
15878;SDS011;61999;51.514;14.614;2022-09-09T07:46:38;2.80;;;1.20;;
15878;SDS011;61999;51.514;14.614;2022-09-09T07:49:08;2.67;;;1.43;;
15878;SDS011;61999;51.514;14.614;2022-09-09T07:51:37;2.47;;;1.37;;
15878;SDS011;61999;51.514;14.614;2022-09-09T07:54:09;1.77;;;1.13;;
15878;SDS011;61999;51.514;14.614;2022-09-09T07:56:40;1.47;;;0.90;;
15878;SDS011;61999;51.514;14.614;2022-09-09T07:59:09;2.37;;;1.17;;
15878;SDS011;61999;51.514;14.614;2022-09-09T08:01:38;4.00;;;1.20;;
15878;SDS011;61999;51.514;14.614;2022-09-09T08:04:11;1.73;;;1.00;;
15878;SDS011;61999;51.514;14.614;2022-09-09T08:06:43;1.77;;;1.00;;
15878;SDS011;61999;51.514;14.614;2022-09-09T08:09:13;1.30;;;0.80;;
15878;SDS011;61999;51.514;14.614;2022-09-09T08:11:42;1.43;;;0.90;;
15878;SDS011;61999;51.514;14.614;2022-09-09T08:14:12;2.27;;;0.80;;
15878;SDS011;61999;51.514;14.614;2022-09-09T08:16:41;0.80;;;0.60;;
15878;SDS011;61999;51.514;14.614;2022-09-09T08:19:12;2.70;;;1.00;;
15878;SDS011;61999;51.514;14.614;2022-09-09T08:21:41;0.77;;;0.60;;
15878;SDS011;61999;51.514;14.614;2022-09-09T08:24:11;1.87;;;0.70;;
15878;SDS011;61999;51.514;14.614;2022-09-09T08:26:41;1.33;;;1.00;;
15878;SDS011;61999;51.514;14.614;2022-09-09T08:29:12;0.80;;;0.80;;
15878;SDS011;61999;51.514;14.614;2022-09-09T08:31:41;1.43;;;0.80;;
15878;SDS011;61999;51.514;14.614;2022-09-09T08:34:12;2.87;;;0.70;;
15878;SDS011;61999;51.514;14.614;2022-09-09T08:36:42;1.07;;;0.80;;
15878;SDS011;61999;51.514;14.614;2022-09-09T08:39:12;2.10;;;0.87;;
15878;SDS011;61999;51.514;14.614;2022-09-09T08:45:05;1.20;;;0.80;;
15878;SDS011;61999;51.514;14.614;2022-09-09T08:47:50;1.30;;;0.90;;
15878;SDS011;61999;51.514;14.614;2022-09-09T08:50:32;1.03;;;0.60;;
15878;SDS011;61999;51.514;14.614;2022-09-09T08:53:05;4.10;;;0.83;;
15878;SDS011;61999;51.514;14.614;2022-09-09T08:55:44;1.93;;;1.00;;
15878;SDS011;61999;51.514;14.614;2022-09-09T08:58:15;0.80;;;0.50;;
15878;SDS011;61999;51.514;14.614;2022-09-09T09:00:54;0.73;;;0.60;;
15878;SDS011;61999;51.514;14.614;2022-09-09T09:03:43;1.30;;;0.60;;
15878;SDS011;61999;51.514;14.614;2022-09-09T09:06:26;1.80;;;0.80;;
15878;SDS011;61999;51.514;14.614;2022-09-09T09:09:11;0.77;;;0.73;;
15878;SDS011;61999;51.514;14.614;2022-09-09T09:11:51;1.23;;;0.60;;
15878;SDS011;61999;51.514;14.614;2022-09-09T09:14:27;0.73;;;0.60;;
15878;SDS011;61999;51.514;14.614;2022-09-09T09:17:02;0.77;;;0.70;;
15878;SDS011;61999;51.514;14.614;2022-09-09T09:19:34;0.60;;;0.50;;
15878;SDS011;61999;51.514;14.614;2022-09-09T09:22:10;0.60;;;0.50;;
15878;SDS011;61999;51.514;14.614;2022-09-09T09:24:49;0.80;;;0.60;;
15878;SDS011;61999;51.514;14.614;2022-09-09T09:27:24;0.67;;;0.60;;
15878;SDS011;61999;51.514;14.614;2022-09-09T09:30:04;0.50;;;0.50;;
15878;SDS011;61999;51.514;14.614;2022-09-09T09:32:51;2.13;;;0.50;;
15878;SDS011;61999;51.514;14.614;2022-09-09T09:35:23;0.83;;;0.60;;
15878;SDS011;61999;51.514;14.614;2022-09-09T09:37:51;1.07;;;0.60;;
15878;SDS011;61999;51.514;14.614;2022-09-09T09:40:47;1.00;;;0.53;;
15878;SDS011;61999;51.514;14.614;2022-09-09T09:43:21;0.77;;;0.53;;
15878;SDS011;61999;51.514;14.614;2022-09-09T09:45:54;1.40;;;0.60;;
15878;SDS011;61999;51.514;14.614;2022-09-09T09:48:40;1.07;;;0.50;;
15878;SDS011;61999;51.514;14.614;2022-09-09T09:51:09;1.27;;;0.60;;
15878;SDS011;61999;51.514;14.614;2022-09-09T09:53:42;1.63;;;0.80;;
15878;SDS011;61999;51.514;14.614;2022-09-09T09:56:11;1.03;;;0.60;;
15878;SDS011;61999;51.514;14.614;2022-09-09T09:58:48;1.83;;;0.97;;
15878;SDS011;61999;51.514;14.614;2022-09-09T10:01:20;1.17;;;0.73;;
15878;SDS011;61999;51.514;14.614;2022-09-09T10:03:52;2.43;;;0.90;;
15878;SDS011;61999;51.514;14.614;2022-09-09T10:06:30;2.20;;;0.60;;
15878;SDS011;61999;51.514;14.614;2022-09-09T10:09:00;2.20;;;0.70;;
15878;SDS011;61999;51.514;14.614;2022-09-09T10:11:38;2.40;;;0.80;;
15878;SDS011;61999;51.514;14.614;2022-09-09T10:14:20;1.20;;;0.70;;
15878;SDS011;61999;51.514;14.614;2022-09-09T10:17:10;1.23;;;0.57;;
15878;SDS011;61999;51.514;14.614;2022-09-09T10:19:57;2.67;;;0.63;;
15878;SDS011;61999;51.514;14.614;2022-09-09T10:22:47;0.93;;;0.60;;
15878;SDS011;61999;51.514;14.614;2022-09-09T10:25:21;0.60;;;0.53;;
15878;SDS011;61999;51.514;14.614;2022-09-09T10:28:09;1.30;;;0.60;;
15878;SDS011;61999;51.514;14.614;2022-09-09T10:31:17;3.77;;;0.90;;
15878;SDS011;61999;51.514;14.614;2022-09-09T10:33:56;1.67;;;0.73;;
15878;SDS011;61999;51.514;14.614;2022-09-09T10:36:37;0.90;;;0.60;;
15878;SDS011;61999;51.514;14.614;2022-09-09T10:39:16;2.27;;;1.10;;
15878;SDS011;61999;51.514;14.614;2022-09-09T10:42:08;1.10;;;0.50;;
15878;SDS011;61999;51.514;14.614;2022-09-09T10:44:48;0.97;;;0.60;;
15878;SDS011;61999;51.514;14.614;2022-09-09T10:47:44;1.33;;;0.60;;
15878;SDS011;61999;51.514;14.614;2022-09-09T10:50:49;1.97;;;0.70;;
15878;SDS011;61999;51.514;14.614;2022-09-09T10:53:36;1.37;;;0.70;;
15878;SDS011;61999;51.514;14.614;2022-09-09T10:56:24;1.43;;;0.87;;
15878;SDS011;61999;51.514;14.614;2022-09-09T10:58:55;1.53;;;0.80;;
15878;SDS011;61999;51.514;14.614;2022-09-09T11:01:29;2.67;;;0.90;;
15878;SDS011;61999;51.514;14.614;2022-09-09T11:04:05;5.17;;;0.80;;
15878;SDS011;61999;51.514;14.614;2022-09-09T11:06:46;15.57;;;1.60;;
15878;SDS011;61999;51.514;14.614;2022-09-09T11:09:23;13.53;;;2.67;;
15878;SDS011;61999;51.514;14.614;2022-09-09T11:11:57;10.80;;;2.63;;
15878;SDS011;61999;51.514;14.614;2022-09-09T11:14:29;6.70;;;1.70;;
15878;SDS011;61999;51.514;14.614;2022-09-09T11:17:06;7.80;;;2.20;;
15878;SDS011;61999;51.514;14.614;2022-09-09T11:19:41;3.70;;;1.20;;
15878;SDS011;61999;51.514;14.614;2022-09-09T11:22:15;2.47;;;1.10;;
15878;SDS011;61999;51.514;14.614;2022-09-09T11:24:54;4.20;;;1.20;;
15878;SDS011;61999;51.514;14.614;2022-09-09T11:27:29;4.87;;;1.27;;
15878;SDS011;61999;51.514;14.614;2022-09-09T11:30:17;5.10;;;1.23;;
15878;SDS011;61999;51.514;14.614;2022-09-09T11:33:15;3.27;;;1.10;;
15878;SDS011;61999;51.514;14.614;2022-09-09T11:39:41;2.27;;;1.00;;
15878;SDS011;61999;51.514;14.614;2022-09-09T11:42:30;3.93;;;1.10;;
15878;SDS011;61999;51.514;14.614;2022-09-09T11:45:07;3.77;;;0.90;;
15878;SDS011;61999;51.514;14.614;2022-09-09T11:47:39;1.30;;;0.63;;
15878;SDS011;61999;51.514;14.614;2022-09-09T11:50:08;3.27;;;1.10;;
15878;SDS011;61999;51.514;14.614;2022-09-09T11:53:02;1.80;;;0.63;;
15878;SDS011;61999;51.514;14.614;2022-09-09T11:56:01;2.73;;;0.60;;
15878;SDS011;61999;51.514;14.614;2022-09-09T11:58:36;1.17;;;0.50;;
15878;SDS011;61999;51.514;14.614;2022-09-09T12:04:10;1.40;;;0.60;;
15878;SDS011;61999;51.514;14.614;2022-09-09T12:06:57;1.10;;;0.50;;
15878;SDS011;61999;51.514;14.614;2022-09-09T12:09:33;0.97;;;0.30;;
15878;SDS011;61999;51.514;14.614;2022-09-09T12:12:26;0.85;;;0.30;;
15878;SDS011;61999;51.514;14.614;2022-09-09T12:15:03;0.20;;;0.20;;
15878;SDS011;61999;51.514;14.614;2022-09-09T12:17:49;0.47;;;0.40;;
15878;SDS011;61999;51.514;14.614;2022-09-09T12:20:20;0.73;;;0.20;;
15878;SDS011;61999;51.514;14.614;2022-09-09T12:22:53;1.75;;;0.30;;
15878;SDS011;61999;51.514;14.614;2022-09-09T12:25:53;1.55;;;0.55;;
15878;SDS011;61999;51.514;14.614;2022-09-09T12:28:44;1.45;;;0.50;;
15878;SDS011;61999;51.514;14.614;2022-09-09T12:31:24;0.47;;;0.28;;
15878;SDS011;61999;51.514;14.614;2022-09-09T12:34:09;0.43;;;0.30;;
15878;SDS011;61999;51.514;14.614;2022-09-09T12:36:41;0.57;;;0.30;;
15878;SDS011;61999;51.514;14.614;2022-09-09T12:39:16;0.50;;;0.40;;
15878;SDS011;61999;51.514;14.614;2022-09-09T12:41:50;1.27;;;0.40;;
15878;SDS011;61999;51.514;14.614;2022-09-09T12:44:25;0.55;;;0.50;;
15878;SDS011;61999;51.514;14.614;2022-09-09T12:46:55;0.40;;;0.40;;
15878;SDS011;61999;51.514;14.614;2022-09-09T12:49:28;0.28;;;0.28;;
15878;SDS011;61999;51.514;14.614;2022-09-09T12:52:01;1.30;;;0.50;;
15878;SDS011;61999;51.514;14.614;2022-09-09T12:54:33;0.75;;;0.25;;
15878;SDS011;61999;51.514;14.614;2022-09-09T12:57:04;0.80;;;0.40;;
15878;SDS011;61999;51.514;14.614;2022-09-09T12:59:40;0.73;;;0.50;;
15878;SDS011;61999;51.514;14.614;2022-09-09T13:02:15;1.10;;;0.80;;
15878;SDS011;61999;51.514;14.614;2022-09-09T13:04:48;1.30;;;0.57;;
15878;SDS011;61999;51.514;14.614;2022-09-09T13:07:17;1.07;;;0.40;;
15878;SDS011;61999;51.514;14.614;2022-09-09T13:09:48;0.80;;;0.40;;
15878;SDS011;61999;51.514;14.614;2022-09-09T13:12:18;0.63;;;0.47;;
15878;SDS011;61999;51.514;14.614;2022-09-09T13:14:50;0.50;;;0.30;;
15878;SDS011;61999;51.514;14.614;2022-09-09T13:17:23;0.50;;;0.40;;
15878;SDS011;61999;51.514;14.614;2022-09-09T13:19:55;0.60;;;0.40;;
15878;SDS011;61999;51.514;14.614;2022-09-09T13:22:27;0.53;;;0.40;;
15878;SDS011;61999;51.514;14.614;2022-09-09T13:25:00;0.70;;;0.30;;
15878;SDS011;61999;51.514;14.614;2022-09-09T13:27:32;1.02;;;0.40;;
15878;SDS011;61999;51.514;14.614;2022-09-09T13:33:01;2.95;;;0.80;;
15878;SDS011;61999;51.514;14.614;2022-09-09T13:35:45;1.35;;;0.55;;
15878;SDS011;61999;51.514;14.614;2022-09-09T13:38:17;0.50;;;0.30;;
15878;SDS011;61999;51.514;14.614;2022-09-09T13:40:55;0.95;;;0.60;;
15878;SDS011;61999;51.514;14.614;2022-09-09T13:43:28;1.85;;;0.38;;
15878;SDS011;61999;51.514;14.614;2022-09-09T13:46:00;1.35;;;0.60;;
15878;SDS011;61999;51.514;14.614;2022-09-09T13:48:54;2.33;;;0.60;;
15878;SDS011;61999;51.514;14.614;2022-09-09T13:51:28;0.90;;;0.50;;
15878;SDS011;61999;51.514;14.614;2022-09-09T13:54:03;1.35;;;0.70;;
15878;SDS011;61999;51.514;14.614;2022-09-09T13:56:33;1.52;;;0.63;;
15878;SDS011;61999;51.514;14.614;2022-09-09T13:59:01;1.10;;;0.75;;
15878;SDS011;61999;51.514;14.614;2022-09-09T14:01:33;1.17;;;0.50;;
15878;SDS011;61999;51.514;14.614;2022-09-09T14:04:01;2.17;;;0.82;;
15878;SDS011;61999;51.514;14.614;2022-09-09T14:06:30;2.30;;;0.80;;
15878;SDS011;61999;51.514;14.614;2022-09-09T14:08:58;1.13;;;0.60;;
15878;SDS011;61999;51.514;14.614;2022-09-09T14:11:27;0.82;;;0.60;;
15878;SDS011;61999;51.514;14.614;2022-09-09T14:13:55;1.17;;;0.70;;
15878;SDS011;61999;51.514;14.614;2022-09-09T14:16:23;1.08;;;0.60;;
15878;SDS011;61999;51.514;14.614;2022-09-09T14:18:55;1.25;;;0.70;;
15878;SDS011;61999;51.514;14.614;2022-09-09T14:21:23;0.95;;;0.55;;
15878;SDS011;61999;51.514;14.614;2022-09-09T14:23:51;1.10;;;0.65;;
15878;SDS011;61999;51.514;14.614;2022-09-09T14:26:19;2.10;;;0.65;;
15878;SDS011;61999;51.514;14.614;2022-09-09T14:28:48;0.63;;;0.50;;
15878;SDS011;61999;51.514;14.614;2022-09-09T14:31:19;1.10;;;0.70;;
15878;SDS011;61999;51.514;14.614;2022-09-09T14:33:47;1.17;;;0.70;;
15878;SDS011;61999;51.514;14.614;2022-09-09T14:36:18;1.23;;;0.70;;
15878;SDS011;61999;51.514;14.614;2022-09-09T14:38:46;1.15;;;0.60;;
15878;SDS011;61999;51.514;14.614;2022-09-09T14:41:15;1.52;;;0.68;;
15878;SDS011;61999;51.514;14.614;2022-09-09T14:43:45;1.67;;;0.70;;
15878;SDS011;61999;51.514;14.614;2022-09-09T14:46:14;1.25;;;0.60;;
15878;SDS011;61999;51.514;14.614;2022-09-09T14:48:45;0.95;;;0.65;;
15878;SDS011;61999;51.514;14.614;2022-09-09T14:51:15;1.20;;;0.63;;
15878;SDS011;61999;51.514;14.614;2022-09-09T14:53:50;0.70;;;0.40;;
15878;SDS011;61999;51.514;14.614;2022-09-09T14:56:20;1.80;;;0.82;;
15878;SDS011;61999;51.514;14.614;2022-09-09T14:58:52;1.13;;;0.70;;
15878;SDS011;61999;51.514;14.614;2022-09-09T15:01:22;1.55;;;0.52;;
15878;SDS011;61999;51.514;14.614;2022-09-09T15:03:54;1.60;;;0.60;;
15878;SDS011;61999;51.514;14.614;2022-09-09T15:06:26;1.00;;;0.90;;
15878;SDS011;61999;51.514;14.614;2022-09-09T15:08:59;1.77;;;0.70;;
15878;SDS011;61999;51.514;14.614;2022-09-09T15:11:28;1.70;;;0.80;;
15878;SDS011;61999;51.514;14.614;2022-09-09T15:14:03;2.07;;;1.00;;
15878;SDS011;61999;51.514;14.614;2022-09-09T15:16:33;2.87;;;0.80;;
15878;SDS011;61999;51.514;14.614;2022-09-09T15:19:02;0.87;;;0.60;;
15878;SDS011;61999;51.514;14.614;2022-09-09T15:21:33;1.93;;;0.70;;
15878;SDS011;61999;51.514;14.614;2022-09-09T15:24:03;1.57;;;0.80;;
15878;SDS011;61999;51.514;14.614;2022-09-09T15:26:34;1.10;;;0.70;;
15878;SDS011;61999;51.514;14.614;2022-09-09T15:29:04;2.53;;;0.73;;